Babson Park, FL

3:54 PM EDT on August 27, 2015 (GMT -0400)
Babson Park, FL | | Change Station
CLOSE
Current Station
Personal Weather Station
Location: Babson Park, FL
Elevation: 161 ft
Nearby Weather Stations

Elev 161 ft 27.83 °N, 81.52 °W | Updated 3 seconds ago

Partly Cloudy
Partly Cloudy
77.7 °F
Feels Like 80 °F
N
0.2
Wind Variable Wind from North
Gusts 2.5 mph

Today
High -- | Low -- °F
--% Chance of Precip.
Yesterday
High -- | Low -- °F
Precip. -- in
7:02 AM 7:52 PM
Waxing Gibbous, 94% visible
Pressure 29.97 in
Visibility 10.0 miles
Clouds Scattered Clouds 2000 ft
Mostly Cloudy 10000 ft
Heat Index 80 °F
Dew Point 72 °F
Humidity 83%
Rainfall 0.63 in
Snow Depth Not available.
UV 5.0 out of 12
Pollen 1.00 out of 12
Air Quality Not available.
Flu Activity Not available.
METAR KBOW 271850Z 09005KT 10SM SCT020 BKN100 25/24 A2997
Pressure 29.97 in
Visibility 10.0 miles
Clouds Scattered Clouds 2000 ft
Mostly Cloudy 10000 ft
Heat Index 80 °F
Dew Point 72 °F
Humidity 83%
Rainfall 0.63 in
Snow Depth Not available.
UV 5.0 out of 12
Pollen 1.00 out of 12
Air Quality Not available.
Flu Activity Not available.
METAR KBOW 271850Z 09005KT 10SM SCT020 BKN100 25/24 A2997

10-Day Weather Forecast

×

Almanac

Astronomy

Aug. 27, 2015 Rise Set
Actual Time
Civil Twilight
Nautical Twilight
Astronomical Twilight
Moon
Length of Visible Light
Length of Day
Tomorrow will be .
, % of the Moon is Illuminated

Today's Extremes

State Highs State Lows

Community

WunderPhotos

Upload Photos

1,850,200 photos uploaded!

WunderBlogs® & News

Nearby

Air Quality

  Air Quality AQ Index Pollutant
Not available.

Snow Depth

Station Depth Elevation

Earthquake Activity

City Distance Mag. Time & Date
Minimum magnitude displayed is 2.5.

Coastal Water Temperatures

Place Temperature

Stations

Nearby Weather Stations

Station Location Temp. Windchill Dew Point Humidity Wind Precip. Elev Updated Type